Iver Agile — IBHW — position and weather

sailwx.info

Track history (hours):
 
Tides and Currents Weather Stations Pressure Air Temp Water Temp Dewpoint Dewpoint Depression Visibility Wind Speed Wind Dir Waves Ship Positions

Iver Agile

Last reported at 2016-Jul-28 19:28 UTC. Time now 2016-Jul-30 13:04 UTC.
Position N 35°10' W 007°22'.

Length 110 m; draft 4.6 m.

Type: Ship. MMSI: 247103700.

Date/timePositionNaut miles runAvg speedWind from/ knotsBaromVisibWave heightAir tempDewpointWater temp
2016-Jul-28 19:28N 35°10' W 007°22'1011.3
2016-Jul-28 18:33N 34°60' W 007°24'5 4.1
2016-Jul-28 17:19N 35°05' W 007°24'5 5.0
2016-Jul-28 16:18N 34°60' W 007°25'4712.0
2016-Jul-28 12:22N 34°14' W 007°38'2011.1
2016-Jul-28 10:33N 33°54' W 007°31'  
2016-Jul-25 20:15N 34°13' W 007°39'5112.4
2016-Jul-25 16:09N 35°02' W 007°21'712.5
2016-Jul-25 15:34N 35°09' W 007°19'1712.6
2016-Jul-25 14:13N 35°26' W 007°15'88 2.1
2016-Jul-23 20:33N 35°58' W 005°34'1010.1
2016-Jul-23 19:33N 36°01' W 005°22'1211.5
2016-Jul-23 18:32N 36°03' W 005°08'22612.4
2016-Jul-23 00:20N 36°32' W 000°30'2312.2
2016-Jul-22 22:29N 36°37' W 000°03'1212.7
2016-Jul-22 21:33N 36°40' E 000°12'1312.8
2016-Jul-22 20:33N 36°43' E 000°27'1312.7
2016-Jul-22 19:33N 36°46' E 000°43'1212.4
2016-Jul-22 18:33N 36°49' E 000°58'1711.7
2016-Jul-22 17:07N 36°53' E 001°18'2210.9
2016-Jul-22 15:04N 36°55' E 001°46'1012.4
2016-Jul-22 14:16N 36°56' E 001°58'1012.5
2016-Jul-22 13:28N 36°57' E 002°11'1212.9
2016-Jul-22 12:33N 36°57' E 002°25'1312.8
2016-Jul-22 11:33N 36°57' E 002°41'1212.2
2016-Jul-22 10:33N 36°56' E 002°56'1110.8
2016-Jul-22 09:33N 36°49' E 003°07'4 1.5
2016-Jul-22 07:08N 36°46' E 003°04'0 0.0
2016-Jul-22 04:32N 36°46' E 003°04'0 0.0
2016-Jul-21 22:32N 36°46' E 003°04'0 0.0
2016-Jul-21 15:23N 36°46' E 003°04'0 0.0
2016-Jul-21 14:32N 36°46' E 003°04'0 0.0
2016-Jul-21 05:28N 36°46' E 003°04'9 4.3
2016-Jul-21 03:24N 36°55' E 003°02'910.9
2016-Jul-21 02:33N 36°55' E 002°50'1211.8
2016-Jul-21 01:33N 36°53' E 002°36'1211.4
2016-Jul-21 00:33N 36°51' E 002°22'1111.2
2016-Jul-20 23:33N 36°50' E 002°08'1110.7
2016-Jul-20 22:34N 36°48' E 001°55'1110.5
2016-Jul-20 21:33N 36°45' E 001°42'1110.7
2016-Jul-20 20:33N 36°44' E 001°29'1111.1
2016-Jul-20 19:33N 36°42' E 001°15'1110.6
2016-Jul-20 18:33N 36°40' E 001°02'1111.0
2016-Jul-20 17:33N 36°38' E 000°48'1111.3
2016-Jul-20 16:33N 36°36' E 000°34'1111.0
2016-Jul-20 15:34N 36°34' E 000°21'1111.2
2016-Jul-20 14:33N 36°32' E 000°07'1111.0
2016-Jul-20 13:30N 36°30' W 000°07'1111.2
2016-Jul-20 12:33N 36°28' W 000°20'1211.2
2016-Jul-20 11:31N 36°27' W 000°34'1211.2
2016-Jul-20 10:26N 36°25' W 000°49'1011.0
2016-Jul-20 09:34N 36°23' W 001°01'1211.4
2016-Jul-20 08:31N 36°21' W 001°15'2211.1
2016-Jul-20 06:34N 36°17' W 001°42'1111.1
2016-Jul-20 05:33N 36°15' W 001°56'2611.2
2016-Jul-20 03:13N 36°11' W 002°27'810.8
2016-Jul-20 02:30N 36°10' W 002°37'13312.1
2016-Jul-19 15:34N 35°59' W 005°21'  
Track history (hours):
 
Tides and Currents Weather Stations Pressure Air Temp Water Temp Dewpoint Dewpoint Depression Visibility Wind Speed Wind Dir Waves Ship Positions

Iver Agile

Last reported at 2016-Jul-28 19:28 UTC. Time now 2016-Jul-30 13:04 UTC.
Position N 35°10' W 007°22'.

Length 110 m; draft 4.6 m.

Type: Ship. MMSI: 247103700.

Date/timePositionNaut miles runAvg speedWind from/ knotsBaromVisibWave heightAir tempDewpointWater temp
2016-Jul-28 19:28N 35°10' W 007°22'1011.3
2016-Jul-28 18:33N 34°60' W 007°24'5 4.1
2016-Jul-28 17:19N 35°05' W 007°24'5 5.0
2016-Jul-28 16:18N 34°60' W 007°25'4712.0
2016-Jul-28 12:22N 34°14' W 007°38'2011.1
2016-Jul-28 10:33N 33°54' W 007°31'  
2016-Jul-25 20:15N 34°13' W 007°39'5112.4
2016-Jul-25 16:09N 35°02' W 007°21'712.5
2016-Jul-25 15:34N 35°09' W 007°19'1712.6
2016-Jul-25 14:13N 35°26' W 007°15'88 2.1
2016-Jul-23 20:33N 35°58' W 005°34'1010.1
2016-Jul-23 19:33N 36°01' W 005°22'1211.5
2016-Jul-23 18:32N 36°03' W 005°08'22612.4
2016-Jul-23 00:20N 36°32' W 000°30'2312.2
2016-Jul-22 22:29N 36°37' W 000°03'1212.7
2016-Jul-22 21:33N 36°40' E 000°12'1312.8
2016-Jul-22 20:33N 36°43' E 000°27'1312.7
2016-Jul-22 19:33N 36°46' E 000°43'1212.4
2016-Jul-22 18:33N 36°49' E 000°58'1711.7
2016-Jul-22 17:07N 36°53' E 001°18'2210.9
2016-Jul-22 15:04N 36°55' E 001°46'1012.4
2016-Jul-22 14:16N 36°56' E 001°58'1012.5
2016-Jul-22 13:28N 36°57' E 002°11'1212.9
2016-Jul-22 12:33N 36°57' E 002°25'1312.8
2016-Jul-22 11:33N 36°57' E 002°41'1212.2
2016-Jul-22 10:33N 36°56' E 002°56'1110.8
2016-Jul-22 09:33N 36°49' E 003°07'4 1.5
2016-Jul-22 07:08N 36°46' E 003°04'0 0.0
2016-Jul-22 04:32N 36°46' E 003°04'0 0.0
2016-Jul-21 22:32N 36°46' E 003°04'0 0.0
2016-Jul-21 15:23N 36°46' E 003°04'0 0.0
2016-Jul-21 14:32N 36°46' E 003°04'0 0.0
2016-Jul-21 05:28N 36°46' E 003°04'9 4.3
2016-Jul-21 03:24N 36°55' E 003°02'910.9
2016-Jul-21 02:33N 36°55' E 002°50'1211.8
2016-Jul-21 01:33N 36°53' E 002°36'1211.4
2016-Jul-21 00:33N 36°51' E 002°22'1111.2
2016-Jul-20 23:33N 36°50' E 002°08'1110.7
2016-Jul-20 22:34N 36°48' E 001°55'1110.5
2016-Jul-20 21:33N 36°45' E 001°42'1110.7
2016-Jul-20 20:33N 36°44' E 001°29'1111.1
2016-Jul-20 19:33N 36°42' E 001°15'1110.6
2016-Jul-20 18:33N 36°40' E 001°02'1111.0
2016-Jul-20 17:33N 36°38' E 000°48'1111.3
2016-Jul-20 16:33N 36°36' E 000°34'1111.0
2016-Jul-20 15:34N 36°34' E 000°21'1111.2
2016-Jul-20 14:33N 36°32' E 000°07'1111.0
2016-Jul-20 13:30N 36°30' W 000°07'1111.2
2016-Jul-20 12:33N 36°28' W 000°20'1211.2
2016-Jul-20 11:31N 36°27' W 000°34'1211.2
2016-Jul-20 10:26N 36°25' W 000°49'1011.0
2016-Jul-20 09:34N 36°23' W 001°01'1211.4
2016-Jul-20 08:31N 36°21' W 001°15'2211.1
2016-Jul-20 06:34N 36°17' W 001°42'1111.1
2016-Jul-20 05:33N 36°15' W 001°56'2611.2
2016-Jul-20 03:13N 36°11' W 002°27'810.8
2016-Jul-20 02:30N 36°10' W 002°37'13312.1
2016-Jul-19 15:34N 35°59' W 005°21'  

Dump ship's entire track history